createdAt,value
2022-10-20T00:01:56.691Z,101881.94
2022-10-20T00:04:25.897Z,101874.88
2022-10-20T00:06:53.745Z,101866.19
2022-10-20T00:09:21.807Z,101865.34
2022-10-20T00:11:49.716Z,101853.97
2022-10-20T00:14:17.740Z,101853.13
2022-10-20T00:16:45.658Z,101862.78
2022-10-20T00:19:13.602Z,101847.00
2022-10-20T00:21:42.781Z,101854.03
2022-10-20T00:24:12.960Z,101845.28
2022-10-20T00:26:40.785Z,101844.28
2022-10-20T00:29:08.666Z,101824.97
2022-10-20T00:31:36.562Z,101824.94
2022-10-20T00:34:04.402Z,101821.41
2022-10-20T00:36:32.379Z,101817.16
2022-10-20T00:39:03.485Z,101796.22
2022-10-20T00:41:32.303Z,101811.06
2022-10-20T00:44:02.499Z,101804.13
2022-10-20T00:46:37.923Z,101804.03
2022-10-20T00:49:13.372Z,101782.09
2022-10-20T00:51:43.808Z,101791.72
2022-10-20T00:54:19.199Z,101791.72
2022-10-20T00:56:49.584Z,101792.59
2022-10-20T00:59:20.828Z,101790.00
2022-10-20T01:01:49.882Z,101782.19
2022-10-20T01:04:18.816Z,101775.16
2022-10-20T01:06:47.860Z,101775.19
2022-10-20T01:09:17.098Z,101769.06
2022-10-20T01:11:55.900Z,101762.09
2022-10-20T01:14:34.987Z,101761.16
2022-10-20T01:17:13.513Z,101760.38
2022-10-20T01:20:19.152Z,101756.78
2022-10-20T01:23:14.523Z,101741.97
2022-10-20T01:26:01.070Z,101748.97
2022-10-20T01:28:36.432Z,101750.75
2022-10-20T01:31:13.796Z,101754.25
2022-10-20T01:33:47.600Z,101744.69
2022-10-20T01:36:22.132Z,101735.91
2022-10-20T01:38:58.307Z,101733.28
2022-10-20T01:41:32.966Z,101716.66
2022-10-20T01:44:04.233Z,101699.13
2022-10-20T01:46:33.467Z,101714.03
2022-10-20T01:49:04.192Z,101709.69
2022-10-20T01:51:33.174Z,101707.97
2022-10-20T01:54:01.077Z,101689.59
2022-10-20T01:56:38.496Z,101702.69
2022-10-20T01:59:27.964Z,101681.69
2022-10-20T02:02:19.335Z,101681.69
2022-10-20T02:05:03.893Z,101677.31
2022-10-20T02:07:34.291Z,101661.56
2022-10-20T02:10:11.060Z,101659.78
2022-10-20T02:12:44.775Z,101668.56
2022-10-20T02:15:20.748Z,101665.03
2022-10-20T02:17:56.515Z,101662.31
2022-10-20T02:20:33.275Z,101656.19
2022-10-20T02:23:05.821Z,101650.13
2022-10-20T02:25:35.465Z,101643.94
2022-10-20T02:28:13.723Z,101630.78
2022-10-20T02:30:50.864Z,101631.69
2022-10-20T02:33:24.767Z,101633.38
2022-10-20T02:35:58.838Z,101628.13
2022-10-20T02:38:30.373Z,101629.00
2022-10-20T02:40:58.287Z,101627.28
2022-10-20T02:43:26.032Z,101623.72
2022-10-20T02:45:57.619Z,101629.91
2022-10-20T02:48:25.597Z,101624.66
2022-10-20T02:50:53.412Z,101631.72
2022-10-20T02:53:23.368Z,101622.00
2022-10-20T02:55:51.137Z,101617.63
2022-10-20T02:58:19.035Z,101615.06
2022-10-20T03:00:46.936Z,101614.13
2022-10-20T03:03:16.152Z,101606.22
2022-10-20T03:05:44.549Z,101594.81
2022-10-20T03:08:12.911Z,101585.16
2022-10-20T03:10:41.604Z,101590.44
2022-10-20T03:13:10.073Z,101579.00
2022-10-20T03:15:38.700Z,101568.50
2022-10-20T03:18:06.717Z,101564.13
2022-10-20T03:20:36.111Z,101539.63
2022-10-20T03:23:04.106Z,101546.56
2022-10-20T03:25:33.008Z,101544.78
2022-10-20T03:28:00.789Z,101537.69
2022-10-20T03:30:28.747Z,101518.41
2022-10-20T03:32:57.383Z,101520.16
2022-10-20T03:35:25.385Z,101520.16
2022-10-20T03:37:54.621Z,101526.31
2022-10-20T03:40:22.444Z,101518.50
2022-10-20T03:42:50.284Z,101522.00
2022-10-20T03:45:18.713Z,101514.97
2022-10-20T03:47:46.578Z,101509.63
2022-10-20T03:50:14.503Z,101506.06
2022-10-20T03:52:42.333Z,101505.19
2022-10-20T03:55:11.660Z,101484.16
2022-10-20T03:57:39.493Z,101477.16
2022-10-20T04:00:08.671Z,101462.19
2022-10-20T04:02:39.722Z,101476.97
2022-10-20T04:05:08.763Z,101473.59
2022-10-20T04:07:36.718Z,101473.53
2022-10-20T04:10:05.162Z,101490.31
2022-10-20T04:12:35.224Z,101483.28
2022-10-20T04:15:03.954Z,101482.34
2022-10-20T04:17:32.301Z,101486.75
2022-10-20T04:20:00.140Z,101476.25
2022-10-20T04:22:28.024Z,101478.06
2022-10-20T04:24:55.882Z,101483.34
2022-10-20T04:27:23.790Z,101455.25
2022-10-20T04:29:54.011Z,101465.75
2022-10-20T04:32:22.956Z,101462.13
2022-10-20T04:34:50.822Z,101463.88
2022-10-20T04:37:19.108Z,101456.00
2022-10-20T04:39:47.143Z,101450.81
2022-10-20T04:42:15.016Z,101448.06
2022-10-20T04:44:43.143Z,101451.66
2022-10-20T04:47:12.637Z,101448.19
2022-10-20T04:49:41.771Z,101444.66
2022-10-20T04:52:20.729Z,101435.06
2022-10-20T04:54:49.486Z,101439.41
2022-10-20T04:57:18.388Z,101437.69
2022-10-20T04:59:46.921Z,101443.78
2022-10-20T05:02:16.108Z,101442.06
2022-10-20T05:04:44.057Z,101437.69
2022-10-20T05:07:12.056Z,101427.28
2022-10-20T05:09:39.964Z,101425.56
2022-10-20T05:12:07.878Z,101436.09
2022-10-20T05:14:35.737Z,101422.94
2022-10-20T05:17:06.459Z,101416.72
2022-10-20T05:19:38.557Z,101414.16
2022-10-20T05:22:06.496Z,101404.44
2022-10-20T05:24:34.356Z,101397.44
2022-10-20T05:27:03.505Z,101397.41
2022-10-20T05:29:34.307Z,101393.03
2022-10-20T05:32:02.261Z,101370.19
2022-10-20T05:34:30.357Z,101378.91
2022-10-20T05:36:59.640Z,101378.94
2022-10-20T05:39:27.524Z,101373.66
2022-10-20T05:41:55.317Z,101353.59
2022-10-20T05:44:23.414Z,101358.81
2022-10-20T05:46:51.301Z,101329.16
2022-10-20T05:49:19.775Z,101352.81
2022-10-20T05:51:48.257Z,101350.16
2022-10-20T05:54:17.728Z,101340.44
2022-10-20T05:56:45.831Z,101344.06
2022-10-20T05:59:14.169Z,101355.50
2022-10-20T06:01:48.253Z,101354.53
2022-10-20T06:04:17.994Z,101358.94
2022-10-20T06:06:46.223Z,101347.63
2022-10-20T06:09:14.241Z,101343.31
2022-10-20T06:11:43.609Z,101336.19
2022-10-20T06:14:11.802Z,101317.81
2022-10-20T06:16:40.063Z,101311.63
2022-10-20T06:19:07.898Z,101309.78
2022-10-20T06:21:37.127Z,101314.25
2022-10-20T06:24:06.799Z,101309.88
2022-10-20T06:26:37.437Z,101319.50
2022-10-20T06:29:08.922Z,101325.56
2022-10-20T06:31:39.766Z,101319.41
2022-10-20T06:34:09.044Z,101318.47
2022-10-20T06:36:38.319Z,101311.41
2022-10-20T06:39:08.276Z,101317.50
2022-10-20T06:41:39.225Z,101307.88
2022-10-20T06:44:08.532Z,101312.13
2022-10-20T06:46:38.283Z,101305.06
2022-10-20T06:49:08.913Z,101313.75
2022-10-20T06:51:37.933Z,101311.00
2022-10-20T06:54:07.434Z,101310.97
2022-10-20T06:56:37.011Z,101316.06
2022-10-20T06:59:07.347Z,101318.66
2022-10-20T07:01:47.098Z,101304.59
2022-10-20T07:04:16.727Z,101286.25
2022-10-20T07:06:46.348Z,101305.38
2022-10-20T07:09:17.499Z,101314.06
2022-10-20T07:11:45.971Z,101328.84
2022-10-20T07:14:14.918Z,101333.94
2022-10-20T07:16:45.507Z,101343.50
2022-10-20T07:19:13.474Z,101341.72
2022-10-20T07:21:45.281Z,101342.59
2022-10-20T07:24:14.304Z,101351.19
2022-10-20T07:26:42.766Z,101343.28
2022-10-20T07:29:11.915Z,101344.97
2022-10-20T07:31:42.044Z,101337.06
2022-10-20T07:34:24.881Z,101338.78
2022-10-20T07:36:54.133Z,101354.44
2022-10-20T07:39:22.497Z,101368.50
2022-10-20T07:41:50.775Z,101371.91
2022-10-20T07:44:18.865Z,101358.72
2022-10-20T07:46:46.971Z,101365.69
2022-10-20T07:49:42.998Z,101357.56
2022-10-20T07:52:04.859Z,101359.16
2022-10-20T07:54:32.918Z,101354.56
2022-10-20T07:57:00.888Z,101346.78
2022-10-20T07:59:29.615Z,101383.47
2022-10-20T08:01:59.592Z,101399.72
2022-10-20T08:04:31.985Z,101394.31
2022-10-20T08:07:00.250Z,101387.34
2022-10-20T08:09:28.158Z,101416.00
2022-10-20T08:11:58.509Z,101424.72
2022-10-20T08:14:30.736Z,101424.56
2022-10-20T08:17:02.227Z,101444.66
2022-10-20T08:22:14.569Z,101440.00
2022-10-20T08:24:44.492Z,101442.34
2022-10-20T08:27:16.996Z,101449.19
2022-10-20T08:30:22.765Z,101431.88
2022-10-20T08:32:54.455Z,101448.16
2022-10-20T08:35:24.927Z,101438.16
2022-10-20T08:37:54.055Z,101434.78
2022-10-20T08:40:28.318Z,101414.72
2022-10-20T08:42:57.409Z,101428.63
2022-10-20T08:45:38.305Z,101427.75
2022-10-20T08:48:06.936Z,101419.66
2022-10-20T08:50:47.554Z,101420.56
2022-10-20T08:53:18.698Z,101441.72
2022-10-20T08:55:48.609Z,101451.16
2022-10-20T08:58:25.333Z,101448.75
2022-10-20T09:01:02.268Z,101411.63
2022-10-20T09:03:32.203Z,101452.28
2022-10-20T09:06:08.524Z,101473.75
2022-10-20T09:08:39.623Z,101465.56
2022-10-20T09:11:17.786Z,101496.78
2022-10-20T09:13:51.813Z,101528.56
2022-10-20T09:16:40.616Z,101497.56
2022-10-20T09:19:23.081Z,101500.41
2022-10-20T09:21:56.873Z,101510.78
2022-10-20T09:24:32.120Z,101517.94
2022-10-20T09:27:44.645Z,101526.72
2022-10-20T09:30:22.808Z,101508.28
2022-10-20T09:32:54.562Z,101483.31
2022-10-20T09:35:28.770Z,101508.09
2022-10-20T09:38:22.526Z,101501.97
2022-10-20T09:41:17.291Z,101504.31
2022-10-20T09:43:59.238Z,101473.03
2022-10-20T09:46:36.017Z,101464.44
2022-10-20T09:49:28.618Z,101481.44
2022-10-20T09:51:57.513Z,101490.13
2022-10-20T09:54:40.862Z,101491.31
2022-10-20T09:57:18.149Z,101491.16
2022-10-20T09:59:50.108Z,101451.34
2022-10-20T10:02:40.111Z,101459.53
2022-10-20T10:05:23.245Z,101462.63
2022-10-20T10:08:01.124Z,101453.78
2022-10-20T10:10:40.686Z,101433.47
2022-10-20T10:13:26.831Z,101426.53
2022-10-20T10:16:08.314Z,101429.13
2022-10-20T10:18:48.272Z,101445.53
2022-10-20T10:21:27.973Z,101422.41
2022-10-20T10:23:57.921Z,101440.59
2022-10-20T10:27:01.405Z,101416.78
2022-10-20T10:29:33.026Z,101438.63
2022-10-20T10:32:20.856Z,101449.63
2022-10-20T10:35:07.182Z,101408.00
2022-10-20T10:37:37.004Z,101435.84
2022-10-20T10:40:17.653Z,101411.81
2022-10-20T10:43:17.214Z,101391.47
2022-10-20T10:46:03.492Z,101380.88
2022-10-20T10:49:09.795Z,101410.28
2022-10-20T10:51:51.665Z,101384.84
2022-10-20T10:54:32.678Z,101395.38
2022-10-20T10:57:06.080Z,101398.28
2022-10-20T10:59:42.060Z,101367.41
2022-10-20T11:02:35.183Z,101382.75
2022-10-20T11:05:28.713Z,101392.22
2022-10-20T11:08:07.342Z,101382.41
2022-10-20T11:10:42.663Z,101388.63
2022-10-20T11:13:23.048Z,101390.28
2022-10-20T11:16:08.374Z,101375.78
2022-10-20T11:18:57.820Z,101383.06
2022-10-20T11:21:34.821Z,101378.25
2022-10-20T11:24:39.295Z,101369.44
2022-10-20T11:27:15.476Z,101354.44
2022-10-20T11:30:09.460Z,101375.13
2022-10-20T11:32:48.432Z,101337.22
2022-10-20T11:35:37.401Z,101339.09
2022-10-20T11:38:17.267Z,101329.53
2022-10-20T11:41:10.862Z,101335.66
2022-10-20T11:43:48.845Z,101321.16
2022-10-20T11:46:28.435Z,101319.22
2022-10-20T11:49:09.913Z,101299.53
2022-10-20T11:52:43.295Z,101283.16
2022-10-20T11:55:34.395Z,101297.66
2022-10-20T11:58:27.088Z,101279.69
2022-10-20T12:01:20.804Z,101311.84
2022-10-20T12:04:28.879Z,101280.13
2022-10-20T12:07:32.736Z,101301.91
2022-10-20T12:10:14.419Z,101285.16
2022-10-20T12:13:10.077Z,101277.59
2022-10-20T12:15:47.161Z,101273.91
2022-10-20T12:18:26.794Z,101293.81
2022-10-20T12:21:01.527Z,101283.09
2022-10-20T12:23:57.775Z,101285.63
2022-10-20T12:27:10.760Z,101288.88
2022-10-20T12:29:58.313Z,101286.56
2022-10-20T12:32:37.678Z,101267.13
2022-10-20T12:35:30.005Z,101256.22
2022-10-20T12:38:02.454Z,101243.59
2022-10-20T12:40:33.619Z,101214.41
2022-10-20T12:43:01.758Z,101192.03
2022-10-20T12:45:38.452Z,101201.78
2022-10-20T12:48:10.490Z,101177.47
2022-10-20T12:50:41.482Z,101184.13
2022-10-20T12:53:20.111Z,101154.72
2022-10-20T12:55:54.938Z,101151.75
2022-10-20T12:58:32.089Z,101139.00
2022-10-20T13:01:09.966Z,101120.69
2022-10-20T13:03:45.496Z,101097.06
2022-10-20T13:06:44.443Z,101096.22
2022-10-20T13:09:22.437Z,101058.34
2022-10-20T13:12:06.027Z,101040.47
2022-10-20T13:14:54.375Z,101042.91
2022-10-20T13:17:56.282Z,101019.25
2022-10-20T13:20:42.658Z,100986.22
2022-10-20T13:23:13.812Z,100984.84
2022-10-20T13:25:46.090Z,100967.25
2022-10-20T13:28:19.869Z,100960.28
2022-10-20T13:31:17.852Z,100944.88
2022-10-20T13:34:04.239Z,100939.13
2022-10-20T13:36:49.117Z,100948.50
2022-10-20T13:39:23.416Z,100937.97
2022-10-20T13:42:02.628Z,100930.56
2022-10-20T13:44:40.381Z,100916.84
2022-10-20T13:47:28.994Z,100917.59
2022-10-20T13:50:05.944Z,100883.81
2022-10-20T13:52:39.570Z,100901.56
2022-10-20T13:55:15.916Z,100887.50
2022-10-20T13:57:55.314Z,100886.63
2022-10-20T14:00:29.600Z,100879.72
2022-10-20T14:03:01.227Z,100886.00
2022-10-20T14:05:31.524Z,100872.69
2022-10-20T14:08:04.713Z,100858.88
2022-10-20T14:10:40.440Z,100873.41
2022-10-20T14:13:12.270Z,100863.78
2022-10-20T14:15:40.370Z,100847.34
2022-10-20T14:18:20.907Z,100844.88
2022-10-20T14:20:57.432Z,100845.34
2022-10-20T14:23:26.167Z,100847.19
2022-10-20T14:25:57.799Z,100855.78
2022-10-20T14:28:32.641Z,100861.94
2022-10-20T14:31:02.357Z,100824.34
2022-10-20T14:33:34.597Z,100820.59
2022-10-20T14:36:04.948Z,100838.75
2022-10-20T14:38:38.055Z,100806.09
2022-10-20T14:41:09.530Z,100821.78
2022-10-20T14:43:41.753Z,100821.53
2022-10-20T14:46:15.040Z,100814.13
2022-10-20T14:48:45.726Z,100807.44
2022-10-20T14:51:31.031Z,100786.22
2022-10-20T14:54:26.627Z,100787.94
2022-10-20T14:56:56.522Z,100778.88
2022-10-20T14:59:27.997Z,100779.09
2022-10-20T15:02:10.028Z,100773.88
2022-10-20T15:04:39.285Z,100766.69
2022-10-20T15:07:13.865Z,100765.59
2022-10-20T15:09:44.540Z,100779.91
2022-10-20T15:12:18.751Z,100784.06
2022-10-20T15:14:54.001Z,100772.41
2022-10-20T15:17:36.824Z,100769.63
2022-10-20T15:20:32.251Z,100762.59
2022-10-20T15:23:02.339Z,100755.28
2022-10-20T15:25:32.552Z,100759.78
2022-10-20T15:28:00.973Z,100755.28
2022-10-20T15:30:36.926Z,100737.63
2022-10-20T15:33:05.333Z,100747.13
2022-10-20T15:35:34.206Z,100741.00
2022-10-20T15:38:02.186Z,100742.50
2022-10-20T15:40:31.048Z,100735.75
2022-10-20T15:42:59.930Z,100741.69
2022-10-20T15:45:39.536Z,100722.84
2022-10-20T15:48:53.939Z,100720.84
2022-10-20T15:51:39.881Z,100723.84
2022-10-20T15:54:09.995Z,100717.38
2022-10-20T15:56:51.411Z,100722.63
2022-10-20T15:59:27.589Z,100714.78
2022-10-20T16:02:12.474Z,100701.50
2022-10-20T16:04:40.339Z,100705.16
2022-10-20T16:07:08.242Z,100709.34
2022-10-20T16:09:36.090Z,100707.69
2022-10-20T16:12:03.991Z,100710.91
2022-10-20T16:14:33.719Z,100710.19
2022-10-20T16:17:03.626Z,100701.28
2022-10-20T16:19:33.512Z,100715.31
2022-10-20T16:22:01.762Z,100686.66
2022-10-20T16:24:32.177Z,100704.81
2022-10-20T16:27:00.374Z,100694.84
2022-10-20T16:29:28.296Z,100697.63
2022-10-20T16:31:57.909Z,100701.00
2022-10-20T16:34:26.283Z,100687.88
2022-10-20T16:36:55.544Z,100698.91
2022-10-20T16:39:23.477Z,100694.63
2022-10-20T16:41:51.302Z,100708.78
2022-10-20T16:44:19.293Z,100711.31
2022-10-20T16:46:50.631Z,100702.66
2022-10-20T16:49:21.190Z,100699.16
2022-10-20T16:51:49.241Z,100695.78
2022-10-20T16:54:19.043Z,100689.59
2022-10-20T16:56:46.887Z,100702.34
2022-10-20T16:59:14.786Z,100695.31
2022-10-20T17:01:42.686Z,100694.38
2022-10-20T17:04:12.513Z,100694.38
2022-10-20T17:06:40.697Z,100696.97
2022-10-20T17:09:09.280Z,100689.00
2022-10-20T17:11:39.034Z,100687.34
2022-10-20T17:14:07.360Z,100682.59
2022-10-20T17:16:38.166Z,100682.66
2022-10-20T17:19:06.400Z,100678.22
2022-10-20T17:21:34.879Z,100664.00
2022-10-20T17:24:03.701Z,100677.41
2022-10-20T17:26:32.462Z,100678.44
2022-10-20T17:29:02.941Z,100671.38
2022-10-20T17:31:31.500Z,100669.38
2022-10-20T17:34:00.587Z,100674.31
2022-10-20T17:36:29.968Z,100661.34
2022-10-20T17:39:00.213Z,100665.41
2022-10-20T17:41:29.138Z,100668.88
2022-10-20T17:43:57.125Z,100668.94
2022-10-20T17:46:26.558Z,100658.38
2022-10-20T17:48:54.866Z,100668.16
2022-10-20T17:51:26.848Z,100668.72
2022-10-20T17:53:58.099Z,100655.94
2022-10-20T17:56:28.622Z,100659.16
2022-10-20T17:58:57.796Z,100666.06
2022-10-20T18:01:30.724Z,100661.56
2022-10-20T18:04:00.605Z,100638.75
2022-10-20T18:06:33.844Z,100658.44
2022-10-20T18:09:05.804Z,100663.28
2022-10-20T18:11:35.495Z,100648.91
2022-10-20T18:14:04.041Z,100644.59
2022-10-20T18:16:36.054Z,100652.78
2022-10-20T18:19:04.428Z,100632.66
2022-10-20T18:21:33.712Z,100642.34
2022-10-20T18:24:03.897Z,100652.72
2022-10-20T18:26:34.696Z,100647.66
2022-10-20T18:29:03.959Z,100634.38
2022-10-20T18:31:35.735Z,100640.56
2022-10-20T18:34:09.310Z,100641.00
2022-10-20T18:36:43.351Z,100639.25
2022-10-20T18:39:14.663Z,100643.75
2022-10-20T18:41:44.062Z,100631.56
2022-10-20T18:44:14.251Z,100632.09
2022-10-20T18:46:44.402Z,100639.69
2022-10-20T18:49:14.398Z,100625.91
2022-10-20T18:51:43.193Z,100621.31
2022-10-20T18:54:12.464Z,100621.91
2022-10-20T18:56:40.519Z,100616.31
2022-10-20T18:59:13.217Z,100607.00
2022-10-20T19:01:43.378Z,100613.75
2022-10-20T19:04:12.550Z,100610.16
2022-10-20T19:06:42.235Z,100607.56
2022-10-20T19:09:12.333Z,100598.38
2022-10-20T19:11:41.426Z,100606.44
2022-10-20T19:14:11.455Z,100593.09
2022-10-20T19:16:41.056Z,100570.28
2022-10-20T19:19:12.475Z,100576.13
2022-10-20T19:21:41.018Z,100565.69
2022-10-20T19:24:14.323Z,100571.84
2022-10-20T19:26:46.706Z,100553.34
2022-10-20T19:29:20.246Z,100554.88
2022-10-20T19:31:50.194Z,100546.59
2022-10-20T19:34:25.857Z,100553.91
2022-10-20T19:36:55.324Z,100533.47
2022-10-20T19:39:27.046Z,100524.34
2022-10-20T19:41:55.690Z,100526.38
2022-10-20T19:44:23.769Z,100518.13
2022-10-20T19:46:52.646Z,100515.03
2022-10-20T19:49:23.682Z,100522.09
2022-10-20T19:51:52.100Z,100505.84
2022-10-20T19:54:20.933Z,100514.22
2022-10-20T19:56:49.192Z,100488.47
2022-10-20T19:59:18.291Z,100499.03
2022-10-20T20:01:46.205Z,100495.16
2022-10-20T20:04:14.153Z,100478.59
2022-10-20T20:06:43.361Z,100461.66
2022-10-20T20:09:15.417Z,100453.69
2022-10-20T20:11:44.129Z,100446.19
2022-10-20T20:14:19.983Z,100445.34
2022-10-20T20:16:53.784Z,100442.09
2022-10-20T20:19:21.629Z,100441.28
2022-10-20T20:21:50.945Z,100431.03
2022-10-20T20:24:20.951Z,100428.53
2022-10-20T20:26:50.115Z,100431.28
2022-10-20T20:29:25.002Z,100422.72
2022-10-20T20:31:56.293Z,100413.19
2022-10-20T20:34:27.516Z,100406.59
2022-10-20T20:36:56.838Z,100412.53
2022-10-20T20:39:27.907Z,100400.44
2022-10-20T20:41:55.752Z,100387.88
2022-10-20T20:46:58.812Z,100382.72
2022-10-20T20:49:26.949Z,100364.00
2022-10-20T20:51:56.427Z,100369.78
2022-10-20T20:54:25.516Z,100366.56
2022-10-20T20:56:55.215Z,100351.13
2022-10-20T20:59:23.111Z,100348.78
2022-10-20T21:01:53.137Z,100321.03
2022-10-20T21:04:21.321Z,100345.91
2022-10-20T21:07:01.597Z,100347.22
2022-10-20T21:09:32.043Z,100336.59
2022-10-20T21:12:02.219Z,100336.84
2022-10-20T21:14:30.926Z,100335.44
2022-10-20T21:17:01.102Z,100315.44
2022-10-20T21:19:30.494Z,100333.78
2022-10-20T21:22:01.475Z,100330.91
2022-10-20T21:24:31.200Z,100306.00
2022-10-20T21:26:59.129Z,100317.66
2022-10-20T21:29:28.239Z,100311.88
2022-10-20T21:31:58.045Z,100306.25
2022-10-20T21:34:28.277Z,100296.50
2022-10-20T21:36:56.550Z,100291.66
2022-10-20T21:39:24.401Z,100298.38
2022-10-20T21:41:53.607Z,100299.72
2022-10-20T21:44:21.517Z,100287.19
2022-10-20T21:46:50.776Z,100288.84
2022-10-20T21:49:20.623Z,100289.84
2022-10-20T21:51:52.345Z,100262.69
2022-10-20T21:56:58.065Z,100251.34
2022-10-20T21:59:28.851Z,100244.75
2022-10-20T22:01:59.163Z,100235.56
2022-10-20T22:04:29.541Z,100219.66
2022-10-20T22:07:00.368Z,100231.66
2022-10-20T22:09:28.996Z,100229.75
2022-10-20T22:11:59.567Z,100220.19
2022-10-20T22:14:27.707Z,100197.75
2022-10-20T22:16:56.622Z,100194.34
2022-10-20T22:19:25.790Z,100172.09
2022-10-20T22:21:54.559Z,100166.31
2022-10-20T22:24:23.072Z,100155.28
2022-10-20T22:26:52.022Z,100142.69
2022-10-20T22:29:22.186Z,100119.66
2022-10-20T22:31:50.319Z,100096.47
2022-10-20T22:34:18.419Z,99911.84
2022-10-20T22:36:46.220Z,99888.56
2022-10-20T22:39:14.836Z,99882.34
2022-10-20T22:41:42.976Z,99869.38
2022-10-20T22:44:11.084Z,99847.69
2022-10-20T22:46:40.360Z,99858.41
2022-10-20T22:49:08.354Z,99843.41
2022-10-20T22:51:36.269Z,99826.69
2022-10-20T22:54:04.424Z,99818.78
2022-10-20T22:56:32.236Z,99799.78
2022-10-20T22:59:00.124Z,99799.59
2022-10-20T23:01:27.958Z,99794.47
2022-10-20T23:03:59.238Z,99785.97
2022-10-20T23:06:27.991Z,99771.63
2022-10-20T23:08:59.252Z,99760.06
2022-10-20T23:11:27.297Z,99752.44
2022-10-20T23:13:55.091Z,99742.41
2022-10-20T23:18:59.252Z,99715.09
2022-10-20T23:21:27.583Z,99686.88
2022-10-20T23:23:57.477Z,99674.34
2022-10-20T23:26:25.480Z,99665.44
2022-10-20T23:28:53.575Z,99659.84
2022-10-20T23:31:23.258Z,99620.63
2022-10-20T23:33:55.802Z,99636.63
2022-10-20T23:36:25.261Z,99643.16
2022-10-20T23:38:53.176Z,99635.47
2022-10-20T23:41:21.179Z,99561.22
2022-10-20T23:43:49.158Z,99565.22
2022-10-20T23:46:17.018Z,99552.53
2022-10-20T23:48:44.812Z,99549.88
2022-10-20T23:51:12.708Z,99541.75
2022-10-20T23:53:41.984Z,99536.44
2022-10-20T23:56:09.869Z,99519.75
2022-10-20T23:58:37.883Z,99507.44
